Estación Meteorológica Peña el Pijo (Robertgarden) [ 02/02/23 20:40:59 CET ]

Fecha Hora Presion(HPa) Temp (°C) Humedad % Rocio (°C) Viento ( m/s) Direccion Lluvia 1Hora(mm) Lluvia 24H(mm) LLuvia Total(mm)
2010-Oct-19 01:01:14 1011.000 2.8 57 -4.9         169.90
2010-Oct-19 02:01:17 1011.000 1.9 62 -4.6         169.90
2010-Oct-19 03:03:14 1010.700 1.3 64 -4.8         169.90
2010-Oct-19 04:01:14 1010.600 0.9 66 -4.8         169.90
2010-Oct-19 05:01:11 1010.100 0.3 66 -5.3         169.90
2010-Oct-19 06:01:13 1009.700 -0.5 71 -5.1         169.90
2010-Oct-19 07:01:12 1009.700 -0.1 68 -5.3         169.90
2010-Oct-19 08:01:12 1009.900 0.1 66 -5.5         169.90
2010-Oct-19 09:01:14 1010.000 0.1 66 -5.5         169.90
2010-Oct-19 10:01:19 1010.300 7.7 55 -0.8         169.90
2010-Oct-19 11:01:18 1010.400 13.3 36 -1.6         169.90
2010-Oct-19 12:01:12 1010.500 16.5 28 -2.2         169.90
2010-Oct-19 13:01:11 1009.900 20.6 24 -0.9         169.90
2010-Oct-19 14:01:12 1009.200 23.8 23 1.2         169.90
2010-Oct-19 15:01:18 1008.300 23.8 21 0.1         169.90
2010-Oct-19 16:01:11 1007.700 24.0 18 -2.1         169.90
2010-Oct-19 17:01:18 1007.600 24.1 18 -2.1         169.90
2010-Oct-19 18:01:11 1007.300 19.9 20 -3.7         169.90
2010-Oct-19 19:01:13 1008.100 15.5 28 -3.1         169.90
2010-Oct-19 20:01:13 1008.800 12.3 32 -4.0         169.90
2010-Oct-19 21:01:16 1009.300 7.8 48 -2.6         169.90
2010-Oct-19 22:01:13 1009.600 5.5 58 -2.1         169.90
2010-Oct-19 23:01:16 1010.000 4.3 64 -2.0         169.90

Temperatura Máxima:24°    Temperatura Mínima:
Presión Máxima:1011.000 Hpa    Presión Mínima:1007.300 Hpa


Volver